createdAt,value
2019-02-15T00:01:20.258Z,8.80
2019-02-15T00:03:48.980Z,8.13
2019-02-15T00:06:17.684Z,7.70
2019-02-15T00:08:46.428Z,7.30
2019-02-15T00:11:18.189Z,7.40
2019-02-15T00:13:47.171Z,6.47
2019-02-15T00:16:15.878Z,7.40
2019-02-15T00:18:56.513Z,6.53
2019-02-15T00:21:34.748Z,7.20
2019-02-15T00:24:03.527Z,8.10
2019-02-15T00:26:32.259Z,10.53
2019-02-15T00:29:00.998Z,8.63
2019-02-15T00:31:29.775Z,9.90
2019-02-15T00:33:58.498Z,10.93
2019-02-15T00:36:27.232Z,12.00
2019-02-15T00:38:56.002Z,12.30
2019-02-15T00:41:28.278Z,10.47
2019-02-15T00:43:57.117Z,11.00
2019-02-15T00:46:44.957Z,9.90
2019-02-15T00:49:20.178Z,8.43
2019-02-15T00:52:10.702Z,7.03
2019-02-15T00:55:07.671Z,7.10
2019-02-15T00:58:01.495Z,6.53
2019-02-15T01:00:52.669Z,6.50
2019-02-15T01:03:40.479Z,7.53
2019-02-15T01:06:34.473Z,7.40
2019-02-15T01:09:21.134Z,7.70
2019-02-15T01:11:59.058Z,7.30
2019-02-15T01:14:27.795Z,7.07
2019-02-15T01:16:56.577Z,7.10
2019-02-15T01:19:25.311Z,8.40
2019-02-15T01:21:54.112Z,6.97
2019-02-15T01:24:22.871Z,8.23
2019-02-15T01:26:55.227Z,7.30
2019-02-15T01:29:52.211Z,7.50
2019-02-15T01:32:43.105Z,6.80
2019-02-15T01:35:42.836Z,7.03
2019-02-15T01:38:20.996Z,7.13
2019-02-15T01:41:27.149Z,6.87
2019-02-15T01:44:10.523Z,5.97
2019-02-15T01:46:46.889Z,6.43
2019-02-15T01:49:15.630Z,6.70
2019-02-15T01:51:44.347Z,7.20
2019-02-15T01:54:13.120Z,6.63
2019-02-15T01:56:41.854Z,6.50
2019-02-15T01:59:10.656Z,7.33
2019-02-15T02:01:39.376Z,7.27
2019-02-15T02:04:08.150Z,6.70
2019-02-15T02:06:36.951Z,7.50
2019-02-15T02:09:06.138Z,7.27
2019-02-15T02:11:34.963Z,5.97
2019-02-15T02:14:03.713Z,6.23
2019-02-15T02:16:32.857Z,6.97
2019-02-15T02:19:01.668Z,6.67
2019-02-15T02:21:30.421Z,6.33
2019-02-15T02:23:59.222Z,6.40
2019-02-15T02:26:27.937Z,6.33
2019-02-15T02:28:56.718Z,6.60
2019-02-15T02:31:25.437Z,6.93
2019-02-15T02:33:54.214Z,6.80
2019-02-15T02:36:24.401Z,5.53
2019-02-15T02:38:53.120Z,6.43
2019-02-15T02:41:22.007Z,6.80
2019-02-15T02:43:59.379Z,5.93
2019-02-15T02:46:21.193Z,6.13
2019-02-15T02:48:49.904Z,6.77
2019-02-15T02:51:18.640Z,6.43
2019-02-15T02:53:47.340Z,6.63
2019-02-15T02:56:16.060Z,7.13
2019-02-15T02:58:44.786Z,7.10
2019-02-15T03:01:13.496Z,7.23
2019-02-15T03:03:42.280Z,6.43
2019-02-15T03:06:11.111Z,7.20
2019-02-15T03:08:39.900Z,6.33
2019-02-15T03:11:08.602Z,6.97
2019-02-15T03:13:37.336Z,7.13
2019-02-15T03:16:06.043Z,6.43
2019-02-15T03:18:34.901Z,6.47
2019-02-15T03:21:03.661Z,6.67
2019-02-15T03:23:32.479Z,6.97
2019-02-15T03:26:01.243Z,6.80
2019-02-15T03:28:29.971Z,6.43
2019-02-15T03:30:58.740Z,7.27
2019-02-15T03:33:27.567Z,7.23
2019-02-15T03:35:59.188Z,6.57
2019-02-15T03:38:53.055Z,6.83
2019-02-15T03:41:34.967Z,6.03
2019-02-15T03:44:03.776Z,6.60
2019-02-15T03:46:32.569Z,6.53
2019-02-15T03:49:01.297Z,5.87
2019-02-15T03:51:30.072Z,6.30
2019-02-15T03:53:58.875Z,6.83
2019-02-15T03:56:27.655Z,6.80
2019-02-15T03:58:56.437Z,6.37
2019-02-15T04:01:25.250Z,6.37
2019-02-15T04:03:53.987Z,6.70
2019-02-15T04:06:22.769Z,6.83
2019-02-15T04:08:51.481Z,6.63
2019-02-15T04:11:20.277Z,6.17
2019-02-15T04:13:50.931Z,6.73
2019-02-15T04:16:19.502Z,5.47
2019-02-15T04:18:48.227Z,6.40
2019-02-15T04:21:16.949Z,6.33
2019-02-15T04:23:45.731Z,6.50
2019-02-15T04:26:14.465Z,6.20
2019-02-15T04:28:43.184Z,6.77
2019-02-15T04:31:11.973Z,6.27
2019-02-15T04:33:40.714Z,6.13
2019-02-15T04:36:09.450Z,7.13
2019-02-15T04:38:38.224Z,6.50
2019-02-15T04:41:06.969Z,7.03
2019-02-15T04:43:35.692Z,6.87
2019-02-15T04:46:04.483Z,8.00
2019-02-15T04:48:33.243Z,7.97
2019-02-15T04:51:01.972Z,7.97
2019-02-15T04:53:30.745Z,6.63
2019-02-15T04:55:59.538Z,5.90
2019-02-15T04:58:28.337Z,6.20
2019-02-15T05:00:57.131Z,6.57
2019-02-15T05:03:25.876Z,5.53
2019-02-15T05:05:54.595Z,5.97
2019-02-15T05:08:23.381Z,5.83
2019-02-15T05:10:52.101Z,5.87
2019-02-15T05:13:20.919Z,5.40
2019-02-15T05:15:49.616Z,5.50
2019-02-15T05:18:18.352Z,6.30
2019-02-15T05:20:47.098Z,6.10
2019-02-15T05:23:15.909Z,5.47
2019-02-15T05:25:44.715Z,6.93
2019-02-15T05:28:13.507Z,5.63
2019-02-15T05:30:42.215Z,4.67
2019-02-15T05:33:11.044Z,6.30
2019-02-15T05:35:39.835Z,5.70
2019-02-15T05:38:08.549Z,6.03
2019-02-15T05:40:37.289Z,5.77
2019-02-15T05:43:06.087Z,6.20
2019-02-15T05:45:34.825Z,6.93
2019-02-15T05:48:03.773Z,5.57
2019-02-15T05:50:32.552Z,6.03
2019-02-15T05:53:01.281Z,5.07
2019-02-15T05:55:30.083Z,7.10
2019-02-15T05:57:58.912Z,6.07
2019-02-15T06:00:36.698Z,6.30
2019-02-15T06:02:58.112Z,5.40
2019-02-15T06:05:29.971Z,5.43
2019-02-15T06:07:58.831Z,5.73
2019-02-15T06:10:27.628Z,6.17
2019-02-15T06:12:56.431Z,7.10
2019-02-15T06:15:25.143Z,6.27
2019-02-15T06:17:53.946Z,6.47
2019-02-15T06:20:22.767Z,6.13
2019-02-15T06:22:51.602Z,6.60
2019-02-15T06:25:20.440Z,6.03
2019-02-15T06:27:49.270Z,5.93
2019-02-15T06:33:00.803Z,6.17
2019-02-15T06:35:29.602Z,5.13
2019-02-15T06:37:58.427Z,5.90
2019-02-15T06:40:32.404Z,5.17
2019-02-15T06:43:01.155Z,5.63
2019-02-15T06:45:30.092Z,6.27
2019-02-15T06:47:58.862Z,5.93
2019-02-15T06:50:29.076Z,5.87
2019-02-15T06:52:57.989Z,5.87
2019-02-15T06:55:26.813Z,5.90
2019-02-15T06:57:55.898Z,4.83
2019-02-15T07:00:44.813Z,6.23
2019-02-15T07:03:31.574Z,8.00
2019-02-15T07:06:00.426Z,6.90
2019-02-15T07:08:29.318Z,7.40
2019-02-15T07:10:58.143Z,6.57
2019-02-15T07:13:28.263Z,5.47
2019-02-15T07:15:57.060Z,5.87
2019-02-15T07:18:25.815Z,5.90
2019-02-15T07:20:54.799Z,5.43
2019-02-15T07:23:23.886Z,5.77
2019-02-15T07:25:52.684Z,5.77
2019-02-15T07:28:21.444Z,5.97
2019-02-15T07:30:50.264Z,5.80
2019-02-15T07:33:19.098Z,5.87
2019-02-15T07:35:48.180Z,5.40
2019-02-15T07:38:16.991Z,5.57
2019-02-15T07:40:45.809Z,5.57
2019-02-15T07:43:17.567Z,5.67
2019-02-15T07:45:46.399Z,5.93
2019-02-15T07:48:15.143Z,5.80
2019-02-15T07:50:43.869Z,4.80
2019-02-15T07:53:12.771Z,5.70
2019-02-15T07:55:41.525Z,5.27
2019-02-15T07:58:10.235Z,5.37
2019-02-15T08:00:39.055Z,5.77
2019-02-15T08:03:07.779Z,5.83
2019-02-15T08:05:36.588Z,5.33
2019-02-15T08:08:05.389Z,5.83
2019-02-15T08:10:34.215Z,5.80
2019-02-15T08:13:03.006Z,4.57
2019-02-15T08:15:36.190Z,5.63
2019-02-15T08:18:02.332Z,6.90
2019-02-15T08:20:31.123Z,6.13
2019-02-15T08:22:59.923Z,5.47
2019-02-15T08:25:28.736Z,5.87
2019-02-15T08:27:57.501Z,5.80
2019-02-15T08:30:26.401Z,5.97
2019-02-15T08:32:55.226Z,6.20
2019-02-15T08:35:24.044Z,6.00
2019-02-15T08:37:52.815Z,6.13
2019-02-15T08:40:21.580Z,6.47
2019-02-15T08:42:52.028Z,6.27
2019-02-15T08:45:23.830Z,5.73
2019-02-15T08:47:52.610Z,6.43
2019-02-15T08:50:21.434Z,6.53
2019-02-15T08:52:50.262Z,6.97
2019-02-15T08:55:19.011Z,5.77
2019-02-15T08:57:47.733Z,5.73
2019-02-15T09:00:16.663Z,6.00
2019-02-15T09:02:45.411Z,5.77
2019-02-15T09:05:14.212Z,6.30
2019-02-15T09:07:43.087Z,6.17
2019-02-15T09:10:12.115Z,5.87
2019-02-15T09:12:40.968Z,5.77
2019-02-15T09:15:11.319Z,5.77
2019-02-15T09:17:40.093Z,5.90
2019-02-15T09:20:09.754Z,6.13
2019-02-15T09:22:38.496Z,6.00
2019-02-15T09:25:07.493Z,5.87
2019-02-15T09:27:58.141Z,5.93
2019-02-15T09:30:27.012Z,6.10
2019-02-15T09:32:55.855Z,5.20
2019-02-15T09:35:24.694Z,5.50
2019-02-15T09:37:53.519Z,5.67
2019-02-15T09:40:22.497Z,5.70
2019-02-15T09:42:51.429Z,7.60
2019-02-15T09:45:20.334Z,5.47
2019-02-15T09:47:49.423Z,5.13
2019-02-15T09:50:18.231Z,5.20
2019-02-15T09:52:47.184Z,5.67
2019-02-15T09:55:16.051Z,5.70
2019-02-15T09:57:44.856Z,5.43
2019-02-15T10:00:13.738Z,6.20
2019-02-15T10:02:42.594Z,5.07
2019-02-15T10:05:11.514Z,4.80
2019-02-15T10:07:40.664Z,5.27
2019-02-15T10:10:10.208Z,5.90
2019-02-15T10:12:38.987Z,5.10
2019-02-15T10:15:07.880Z,5.53
2019-02-15T10:17:36.855Z,5.30
2019-02-15T10:20:05.921Z,5.20
2019-02-15T10:22:34.846Z,5.23
2019-02-15T10:25:03.572Z,5.60
2019-02-15T10:27:32.319Z,4.83
2019-02-15T10:30:02.578Z,5.27
2019-02-15T10:32:31.582Z,5.00
2019-02-15T10:35:00.754Z,5.40
2019-02-15T10:37:29.841Z,5.07
2019-02-15T10:39:58.703Z,4.90
2019-02-15T10:42:28.496Z,4.77
2019-02-15T10:44:57.298Z,4.93
2019-02-15T10:47:26.055Z,5.30
2019-02-15T10:49:54.855Z,4.80
2019-02-15T10:52:23.643Z,4.80
2019-02-15T10:54:52.385Z,5.97
2019-02-15T10:57:21.233Z,5.03
2019-02-15T10:59:50.057Z,4.83
2019-02-15T11:02:18.875Z,4.80
2019-02-15T11:04:48.075Z,5.07
2019-02-15T11:07:16.904Z,4.50
2019-02-15T11:09:45.725Z,4.50
2019-02-15T11:12:14.453Z,4.43
2019-02-15T11:14:43.229Z,4.20
2019-02-15T11:17:11.998Z,4.17
2019-02-15T11:19:40.841Z,4.40
2019-02-15T11:22:09.601Z,5.10
2019-02-15T11:24:38.380Z,4.27
2019-02-15T11:27:07.088Z,3.80
2019-02-15T11:29:35.967Z,4.40
2019-02-15T11:32:04.921Z,4.43
2019-02-15T11:34:33.744Z,4.20
2019-02-15T11:37:02.519Z,4.10
2019-02-15T11:39:33.581Z,4.70
2019-02-15T11:42:02.349Z,4.10
2019-02-15T11:44:31.134Z,4.10
2019-02-15T11:46:59.889Z,3.93
2019-02-15T11:49:28.847Z,3.10
2019-02-15T11:51:57.584Z,3.40
2019-02-15T11:54:26.399Z,3.67
2019-02-15T11:56:55.252Z,4.00
2019-02-15T11:59:24.276Z,3.40
2019-02-15T12:01:53.100Z,3.47
2019-02-15T12:04:23.212Z,3.60
2019-02-15T12:06:52.060Z,3.80
2019-02-15T12:09:21.251Z,3.73
2019-02-15T12:11:50.162Z,3.53
2019-02-15T12:14:18.936Z,3.30
2019-02-15T12:16:47.862Z,3.53
2019-02-15T12:19:16.656Z,3.63
2019-02-15T12:21:46.464Z,3.67
2019-02-15T12:24:15.203Z,2.93
2019-02-15T12:26:43.999Z,3.30
2019-02-15T12:29:12.910Z,3.47
2019-02-15T12:31:41.704Z,3.00
2019-02-15T12:34:10.513Z,2.80
2019-02-15T12:36:39.313Z,3.10
2019-02-15T12:39:09.047Z,2.70
2019-02-15T12:41:37.906Z,2.50
2019-02-15T12:44:06.692Z,2.47
2019-02-15T12:46:35.529Z,2.73
2019-02-15T12:49:04.323Z,2.73
2019-02-15T12:51:33.044Z,2.37
2019-02-15T12:54:01.836Z,2.70
2019-02-15T12:56:30.710Z,2.53
2019-02-15T12:58:59.497Z,2.23
2019-02-15T13:01:28.274Z,2.53
2019-02-15T13:03:57.051Z,2.40
2019-02-15T13:06:28.705Z,2.60
2019-02-15T13:08:56.505Z,2.60
2019-02-15T13:11:25.263Z,2.47
2019-02-15T13:13:54.074Z,2.60
2019-02-15T13:16:22.886Z,2.13
2019-02-15T13:18:51.703Z,2.10
2019-02-15T13:21:20.589Z,2.80
2019-02-15T13:23:49.303Z,2.43
2019-02-15T13:26:18.110Z,2.77
2019-02-15T13:28:46.952Z,2.67
2019-02-15T13:31:15.704Z,2.63
2019-02-15T13:33:44.619Z,2.77
2019-02-15T13:36:13.496Z,2.57
2019-02-15T13:38:42.298Z,2.60
2019-02-15T13:41:11.154Z,2.63
2019-02-15T13:43:43.425Z,3.23
2019-02-15T13:46:10.892Z,3.00
2019-02-15T13:48:42.483Z,2.97
2019-02-15T13:51:11.218Z,2.90
2019-02-15T13:53:40.035Z,2.47
2019-02-15T13:56:08.868Z,3.13
2019-02-15T13:58:37.591Z,2.80
2019-02-15T14:01:06.469Z,2.43
2019-02-15T14:03:45.370Z,3.00
2019-02-15T14:06:14.682Z,2.70
2019-02-15T14:08:43.482Z,2.70
2019-02-15T14:11:12.529Z,2.90
2019-02-15T14:13:41.372Z,2.87
2019-02-15T14:16:10.145Z,2.77
2019-02-15T14:18:38.891Z,2.30
2019-02-15T14:21:07.678Z,2.60
2019-02-15T14:23:36.456Z,2.93
2019-02-15T14:26:05.217Z,2.50
2019-02-15T14:28:34.063Z,2.90
2019-02-15T14:31:02.986Z,2.80
2019-02-15T14:33:31.820Z,2.40
2019-02-15T14:36:00.700Z,2.50
2019-02-15T14:38:29.519Z,2.47
2019-02-15T14:40:58.393Z,2.27
2019-02-15T14:43:27.304Z,2.10
2019-02-15T14:45:56.086Z,2.27
2019-02-15T14:48:24.840Z,2.00
2019-02-15T14:50:53.746Z,2.10
2019-02-15T14:53:22.587Z,2.30
2019-02-15T14:55:51.414Z,1.87
2019-02-15T14:58:20.295Z,2.10
2019-02-15T15:00:49.110Z,2.10
2019-02-15T15:03:18.185Z,2.30
2019-02-15T15:05:47.202Z,2.53
2019-02-15T15:08:16.224Z,2.03
2019-02-15T15:10:45.033Z,2.13
2019-02-15T15:13:13.912Z,2.20
2019-02-15T15:15:42.858Z,2.60
2019-02-15T15:18:14.439Z,2.00
2019-02-15T15:20:43.485Z,2.47
2019-02-15T15:23:12.396Z,2.17
2019-02-15T15:25:42.367Z,1.90
2019-02-15T15:28:11.515Z,2.50
2019-02-15T15:30:40.515Z,1.80
2019-02-15T15:33:09.387Z,2.43
2019-02-15T15:35:38.292Z,2.10
2019-02-15T15:38:13.894Z,2.20
2019-02-15T15:41:03.147Z,1.87
2019-02-15T15:43:35.485Z,2.00
2019-02-15T15:46:07.946Z,2.27
2019-02-15T15:48:37.971Z,1.83
2019-02-15T15:51:07.876Z,2.50
2019-02-15T15:53:36.873Z,2.00
2019-02-15T15:56:08.347Z,2.10
2019-02-15T15:58:37.297Z,3.87
2019-02-15T16:01:06.285Z,2.40
2019-02-15T16:03:35.108Z,2.13
2019-02-15T16:06:03.889Z,2.10
2019-02-15T16:08:32.778Z,2.00
2019-02-15T16:11:01.688Z,1.87
2019-02-15T16:13:30.529Z,1.93
2019-02-15T16:16:00.670Z,2.03
2019-02-15T16:18:34.617Z,1.93
2019-02-15T16:20:59.971Z,1.97
2019-02-15T16:23:28.960Z,2.17
2019-02-15T16:25:57.791Z,2.07
2019-02-15T16:28:26.612Z,1.87
2019-02-15T16:30:55.467Z,2.00
2019-02-15T16:33:24.297Z,1.70
2019-02-15T16:35:53.415Z,1.93
2019-02-15T16:38:22.281Z,1.70
2019-02-15T16:40:51.063Z,1.80
2019-02-15T16:43:19.808Z,2.40
2019-02-15T16:45:48.563Z,1.50
2019-02-15T16:48:17.467Z,1.57
2019-02-15T16:50:46.263Z,1.20
2019-02-15T16:53:16.252Z,1.87
2019-02-15T16:55:45.504Z,2.00
2019-02-15T16:58:35.351Z,1.80
2019-02-15T17:01:05.174Z,1.50
2019-02-15T17:03:33.986Z,1.60
2019-02-15T17:06:02.812Z,1.90
2019-02-15T17:08:31.791Z,1.63
2019-02-15T17:11:06.796Z,1.87
2019-02-15T17:13:35.577Z,1.70
2019-02-15T17:16:04.379Z,1.40
2019-02-15T17:18:35.829Z,1.50
2019-02-15T17:21:07.041Z,1.80
2019-02-15T17:23:35.909Z,1.37
2019-02-15T17:26:07.613Z,1.67
2019-02-15T17:28:36.413Z,1.40
2019-02-15T17:31:05.182Z,1.30
2019-02-15T17:33:36.999Z,1.80
2019-02-15T17:36:05.906Z,1.63
2019-02-15T17:38:34.797Z,1.80
2019-02-15T17:41:03.626Z,1.80
2019-02-15T17:43:32.545Z,2.30
2019-02-15T17:46:01.379Z,2.30
2019-02-15T17:48:30.367Z,2.83
2019-02-15T17:50:59.154Z,2.10
2019-02-15T17:53:27.919Z,2.07
2019-02-15T17:55:56.823Z,2.47
2019-02-15T17:58:25.675Z,2.57
2019-02-15T18:00:54.570Z,2.70
2019-02-15T18:03:23.404Z,2.90
2019-02-15T18:05:52.196Z,2.73
2019-02-15T18:08:21.186Z,3.20
2019-02-15T18:10:50.066Z,3.33
2019-02-15T18:13:18.977Z,2.90
2019-02-15T18:15:48.054Z,2.63
2019-02-15T18:18:16.952Z,3.10
2019-02-15T18:20:45.822Z,3.23
2019-02-15T18:23:14.640Z,2.93
2019-02-15T18:25:43.537Z,3.30
2019-02-15T18:28:12.300Z,3.53
2019-02-15T18:30:44.341Z,3.57
2019-02-15T18:33:13.221Z,3.80
2019-02-15T18:35:42.327Z,3.60
2019-02-15T18:38:11.204Z,4.33
2019-02-15T18:40:40.045Z,3.60
2019-02-15T18:43:08.912Z,3.87
2019-02-15T18:45:37.678Z,3.23
2019-02-15T18:48:06.509Z,3.73
2019-02-15T18:50:35.351Z,3.53
2019-02-15T18:53:04.326Z,3.37
2019-02-15T18:55:33.257Z,3.70
2019-02-15T18:58:02.159Z,4.83
2019-02-15T19:00:30.949Z,3.60
2019-02-15T19:02:59.752Z,4.50
2019-02-15T19:05:28.720Z,3.90
2019-02-15T19:07:57.549Z,4.40
2019-02-15T19:10:26.419Z,4.37
2019-02-15T19:12:55.286Z,4.43
2019-02-15T19:15:24.263Z,4.50
2019-02-15T19:17:53.090Z,4.83
2019-02-15T19:20:21.899Z,5.00
2019-02-15T19:22:50.727Z,4.50
2019-02-15T19:25:19.924Z,3.80
2019-02-15T19:27:48.756Z,3.67
2019-02-15T19:30:21.804Z,4.87
2019-02-15T19:32:50.975Z,5.20
2019-02-15T19:35:22.350Z,4.63
2019-02-15T19:37:51.203Z,4.33
2019-02-15T19:40:20.181Z,3.70
2019-02-15T19:42:50.218Z,3.80
2019-02-15T19:45:21.551Z,3.90
2019-02-15T19:47:50.535Z,3.80
2019-02-15T19:50:19.406Z,4.00
2019-02-15T19:52:48.566Z,4.90
2019-02-15T19:55:17.563Z,6.30
2019-02-15T19:57:46.473Z,4.27
2019-02-15T20:00:16.093Z,4.20
2019-02-15T20:02:45.118Z,4.13
2019-02-15T20:05:15.478Z,3.43
2019-02-15T20:07:44.466Z,4.13
2019-02-15T20:10:14.454Z,3.87
2019-02-15T20:12:43.468Z,4.10
2019-02-15T20:15:12.711Z,4.27
2019-02-15T20:17:41.751Z,5.00
2019-02-15T20:20:11.304Z,6.43
2019-02-15T20:22:41.281Z,4.23
2019-02-15T20:25:10.534Z,3.77
2019-02-15T20:27:39.527Z,4.40
2019-02-15T20:30:12.023Z,4.03
2019-02-15T20:32:40.951Z,3.23
2019-02-15T20:35:10.159Z,3.33
2019-02-15T20:37:39.215Z,3.30
2019-02-15T20:40:09.054Z,4.37
2019-02-15T20:42:37.935Z,3.47
2019-02-15T20:45:08.300Z,3.60
2019-02-15T20:47:37.324Z,3.37
2019-02-15T20:50:06.843Z,3.20
2019-02-15T20:52:35.794Z,3.67
2019-02-15T20:55:07.005Z,3.10
2019-02-15T20:57:38.066Z,3.40
2019-02-15T21:00:08.209Z,3.50
2019-02-15T21:02:37.196Z,3.53
2019-02-15T21:05:06.938Z,3.07
2019-02-15T21:07:35.880Z,3.07
2019-02-15T21:10:04.786Z,3.23
2019-02-15T21:12:33.760Z,3.00
2019-02-15T21:15:02.729Z,3.40
2019-02-15T21:17:31.617Z,3.50
2019-02-15T21:20:07.390Z,3.33
2019-02-15T21:22:50.082Z,3.63
2019-02-15T21:25:18.983Z,3.60
2019-02-15T21:27:47.884Z,3.77
2019-02-15T21:30:16.901Z,3.73
2019-02-15T21:32:45.747Z,2.73
2019-02-15T21:35:14.629Z,3.03
2019-02-15T21:37:43.480Z,3.27
2019-02-15T21:40:12.858Z,3.07
2019-02-15T21:42:41.684Z,3.77
2019-02-15T21:45:10.621Z,3.07
2019-02-15T21:47:39.579Z,2.90
2019-02-15T21:50:16.729Z,3.07
2019-02-15T21:52:44.141Z,3.30
2019-02-15T21:55:09.507Z,3.00
2019-02-15T21:57:38.457Z,3.43
2019-02-15T22:00:08.647Z,3.13
2019-02-15T22:02:37.492Z,3.20
2019-02-15T22:05:06.660Z,2.93
2019-02-15T22:07:35.548Z,2.67
2019-02-15T22:10:04.459Z,3.10
2019-02-15T22:12:33.309Z,2.93
2019-02-15T22:15:02.143Z,3.20
2019-02-15T22:17:30.927Z,3.17
2019-02-15T22:19:59.706Z,2.70
2019-02-15T22:22:28.507Z,2.80
2019-02-15T22:24:57.311Z,3.10
2019-02-15T22:27:26.195Z,2.67
2019-02-15T22:29:55.013Z,3.27
2019-02-15T22:32:23.835Z,3.07
2019-02-15T22:34:52.666Z,2.90
2019-02-15T22:37:21.640Z,2.57
2019-02-15T22:39:50.426Z,2.67
2019-02-15T22:42:19.190Z,4.93
2019-02-15T22:44:48.229Z,2.93
2019-02-15T22:47:17.133Z,2.90
2019-02-15T22:49:45.947Z,3.20
2019-02-15T22:52:14.734Z,2.50
2019-02-15T22:54:43.581Z,2.80
2019-02-15T22:57:12.430Z,3.30
2019-02-15T22:59:41.262Z,2.87
2019-02-15T23:02:10.932Z,2.60
2019-02-15T23:04:39.804Z,2.63
2019-02-15T23:07:14.690Z,3.00
2019-02-15T23:09:43.461Z,2.60
2019-02-15T23:12:12.265Z,2.73
2019-02-15T23:14:41.101Z,2.60
2019-02-15T23:17:09.903Z,2.57
2019-02-15T23:19:38.718Z,3.00
2019-02-15T23:22:07.570Z,2.67
2019-02-15T23:24:36.411Z,3.17
2019-02-15T23:27:05.152Z,2.13
2019-02-15T23:29:33.997Z,2.53
2019-02-15T23:32:03.188Z,2.73
2019-02-15T23:34:45.553Z,2.47
2019-02-15T23:37:15.105Z,2.60
2019-02-15T23:39:43.865Z,2.13
2019-02-15T23:42:12.682Z,2.40
2019-02-15T23:44:41.419Z,2.47
2019-02-15T23:47:10.163Z,2.20
2019-02-15T23:49:38.969Z,2.53
2019-02-15T23:52:07.761Z,2.97
2019-02-15T23:54:36.506Z,1.80
2019-02-15T23:57:05.366Z,2.33
2019-02-15T23:59:34.097Z,1.80
